Time;durP1;ratioP1;P1;durP2;ratioP2;P2;SDS_P1;SDS_P2;PMS_P1;PMS_P2;Temp;Humidity;BMP_temperature;BMP_pressure;BME280_temperature;BME280_humidity;BME280_pressure;Samples;Min_cycle;Max_cycle;Signal;HPM_P1;HPM_P2
2022/08/12 00:45:17;;;;;;;12.55;3.70;;;;;;;22.19;57.65;101474.88;5066603;28;20044;-78
2022/08/12 00:47:45;;;;;;;7.68;3.95;;;;;;;22.17;57.23;101472.50;5064329;28;20045;-78
2022/08/12 00:50:18;;;;;;;8.15;3.70;;;;;;;22.17;57.38;101474.56;5066628;28;20063;-78
2022/08/12 00:52:46;;;;;;;9.23;3.67;;;;;;;22.14;56.88;101478.28;5061332;28;20055;-78
2022/08/12 00:55:14;;;;;;;8.48;3.58;;;;;;;22.09;57.10;101476.03;5064258;28;20131;-78
2022/08/12 00:57:46;;;;;;;6.78;3.72;;;;;;;22.02;57.71;101473.50;5062787;28;20440;-77
2022/08/12 01:00:20;;;;;;;9.00;3.75;;;;;;;21.99;57.81;101472.38;5063662;28;20046;-78
2022/08/12 01:02:50;;;;;;;11.93;4.15;;;;;;;21.99;58.18;101477.22;5064346;28;20055;-78
2022/08/12 01:13:48;;;;;;;5.65;3.60;;;;;;;21.93;58.51;101481.84;5062609;28;20152;-78
2022/08/12 01:16:21;;;;;;;8.83;4.30;;;;;;;21.92;58.12;101480.28;5066954;28;20515;-78
2022/08/12 01:18:53;;;;;;;;;;;;;;;21.88;59.45;101477.63;5066309;28;20080;-76
2022/08/12 01:21:23;;;;;;;9.73;3.58;;;;;;;21.86;58.48;101477.28;5067813;28;19924;-78
2022/08/12 01:24:00;;;;;;;7.57;3.92;;;;;;;21.81;59.94;101477.88;5070858;28;20058;-78
2022/08/12 01:26:50;;;;;;;11.32;4.50;;;;;;;21.83;58.39;101478.19;5068345;28;20045;-77
2022/08/12 01:29:22;;;;;;;7.93;3.45;;;;;;;21.78;58.13;101484.41;5069814;28;20062;-78
2022/08/12 01:31:50;;;;;;;8.55;3.80;;;;;;;21.72;57.66;101479.75;5064322;28;20041;-77
2022/08/12 01:34:23;;;;;;;8.80;3.97;;;;;;;21.66;57.73;101481.56;5065288;28;20116;-78
2022/08/12 01:37:06;;;;;;;7.63;3.90;;;;;;;21.65;57.27;101482.84;5066811;28;20072;-78
2022/08/12 01:39:47;;;;;;;11.20;3.90;;;;;;;21.59;57.81;101476.19;5062100;28;20049;-78
2022/08/12 01:42:43;;;;;;;8.35;3.83;;;;;;;21.52;58.27;101471.59;5067571;28;20052;-78
2022/08/12 01:45:11;;;;;;;8.70;3.95;;;;;;;21.52;57.41;101479.25;5065378;28;20044;-78
2022/08/12 01:47:41;;;;;;;10.75;4.10;;;;;;;21.48;59.45;101475.78;5059223;28;20072;-78
2022/08/12 01:50:45;;;;;;;10.93;4.30;;;;;;;21.45;60.37;101479.50;5068506;28;20761;-78
2022/08/12 01:53:14;;;;;;;9.07;3.83;;;;;;;21.42;60.16;101467.13;5068136;28;20468;-78
2022/08/12 01:55:45;;;;;;;8.32;3.80;;;;;;;21.39;60.24;101478.53;5069354;28;20093;-78
2022/08/12 01:58:25;;;;;;;7.05;4.03;;;;;;;21.36;61.60;101473.78;5063963;28;20487;-78
2022/08/12 02:01:07;;;;;;;11.35;3.97;;;;;;;21.32;61.19;101475.91;5060716;28;20048;-77
2022/08/12 02:13:32;;;;;;;9.20;4.20;;;;;;;21.23;62.84;101479.41;5061273;28;20056;-78
2022/08/12 02:16:30;;;;;;;11.20;4.18;;;;;;;21.22;61.34;101488.31;5061455;28;20143;-77
2022/08/12 02:19:36;;;;;;;8.73;4.05;;;;;;;21.16;61.75;101484.50;5068732;28;20049;-75
2022/08/12 02:22:26;;;;;;;8.15;4.13;;;;;;;21.12;62.59;101492.28;5036030;28;20455;-78
2022/08/12 02:25:20;;;;;;;8.65;4.47;;;;;;;21.05;63.28;101486.84;5065463;28;20055;-78
2022/08/12 02:27:48;;;;;;;13.75;4.80;;;;;;;21.05;62.74;101479.22;5063266;28;20123;-77
2022/08/12 02:30:19;;;;;;;11.50;4.53;;;;;;;21.02;62.08;101484.97;5064456;28;20090;-76
2022/08/12 02:32:48;;;;;;;8.48;4.05;;;;;;;21.02;62.15;101480.09;5060660;28;20545;-78
2022/08/12 02:35:19;;;;;;;9.77;4.28;;;;;;;21.02;62.16;101485.72;5061919;28;20108;-79
2022/08/12 02:37:51;;;;;;;9.18;4.20;;;;;;;20.98;62.48;101484.25;5065732;28;20696;-78
2022/08/12 02:40:19;;;;;;;9.35;3.97;;;;;;;20.97;62.43;101488.31;5067496;28;20040;-77
2022/08/12 02:43:11;;;;;;;11.68;4.25;;;;;;;20.95;63.36;101493.63;5068319;28;20052;-77
2022/08/12 02:45:54;;;;;;;9.50;4.20;;;;;;;20.91;63.00;101492.91;5063141;28;20407;-76
2022/08/12 02:48:29;;;;;;;8.38;4.15;;;;;;;20.88;63.22;101496.63;5062116;28;20051;-77
2022/08/12 02:51:00;;;;;;;8.93;4.13;;;;;;;20.85;62.13;101491.91;5056289;28;20052;-74
2022/08/12 02:53:28;;;;;;;9.90;4.35;;;;;;;20.82;63.04;101490.00;5063440;28;20044;-78
2022/08/12 02:55:58;;;;;;;11.93;4.72;;;;;;;20.77;63.62;101493.34;5059438;28;20063;-78
2022/08/12 02:58:25;;;;;;;10.25;4.40;;;;;;;20.73;63.97;101487.84;5064351;28;20393;-77
2022/08/12 03:01:00;;;;;;;11.60;4.33;;;;;;;20.72;64.70;101491.09;5066242;28;20501;-79
2022/08/12 03:03:32;;;;;;;7.22;3.90;;;;;;;20.68;64.53;101485.56;5068419;28;20048;-79
2022/08/12 03:06:08;;;;;;;11.95;4.18;;;;;;;20.66;65.14;101485.25;5063855;28;20041;-78
2022/08/12 03:08:42;;;;;;;7.47;4.43;;;;;;;20.65;65.13;101489.28;5064043;28;20045;-79
2022/08/12 03:11:19;;;;;;;10.30;4.40;;;;;;;20.59;66.17;101479.03;5063689;28;20040;-78
2022/08/12 03:13:54;;;;;;;14.23;4.95;;;;;;;20.59;65.94;101485.47;5060658;28;20063;-78
2022/08/12 03:16:22;;;;;;;10.10;4.55;;;;;;;20.55;65.76;101484.75;5061481;28;20524;-78
2022/08/12 03:18:50;;;;;;;11.77;4.68;;;;;;;20.55;65.98;101486.81;5065188;28;20040;-78
2022/08/12 03:21:19;;;;;;;12.27;4.75;;;;;;;20.52;66.36;101484.88;5070530;28;20049;-76
2022/08/12 03:24:07;;;;;;;9.05;4.75;;;;;;;20.45;66.52;101480.25;5065525;28;20052;-76
2022/08/12 03:26:35;;;;;;;13.48;4.40;;;;;;;20.41;66.85;101484.41;5066333;28;20076;-77
2022/08/12 03:29:08;;;;;;;9.32;4.50;;;;;;;20.36;66.99;101494.94;5061095;28;20033;-79
2022/08/12 03:31:35;;;;;;;8.48;4.80;;;;;;;20.33;66.89;101484.63;5056595;28;20055;-77
2022/08/12 03:34:09;;;;;;;11.05;4.70;;;;;;;20.33;67.20;101490.25;5058760;28;20045;-77
2022/08/12 03:36:39;;;;;;;13.82;5.15;;;;;;;20.32;67.15;101490.69;5063268;28;20131;-76
2022/08/12 03:39:31;;;;;;;12.23;4.80;;;;;;;20.23;67.30;101487.72;5065341;28;20039;-77
2022/08/12 03:42:34;;;;;;;11.35;4.88;;;;;;;20.21;68.03;101493.78;5064001;28;20064;-78
2022/08/12 04:02:15;;;;;;;11.40;5.38;;;;;;;19.97;69.24;101488.84;5062875;28;20084;-79
2022/08/12 04:04:44;;;;;;;10.30;4.88;;;;;;;19.98;69.56;101490.44;5064541;28;20104;-77
2022/08/12 04:07:15;;;;;;;11.85;4.95;;;;;;;19.95;69.12;101496.94;5067070;28;20044;-76
2022/08/12 04:09:44;;;;;;;9.77;4.90;;;;;;;19.90;69.90;101495.44;5069741;28;20040;-76
2022/08/12 04:14:59;;;;;;;12.52;5.30;;;;;;;19.92;69.37;101497.81;5058402;28;20049;-78
2022/08/12 04:17:26;;;;;;;11.95;4.97;;;;;;;19.88;70.16;101497.13;5065572;28;20054;-78
2022/08/12 04:19:57;;;;;;;10.85;4.80;;;;;;;19.84;69.78;101499.22;5067698;28;20044;-78
2022/08/12 04:22:29;;;;;;;10.73;4.50;;;;;;;19.79;68.82;101499.75;5059379;28;20044;-79
2022/08/12 04:24:59;;;;;;;13.80;5.88;;;;;;;19.80;70.25;101493.69;5065988;28;20520;-79
2022/08/12 04:27:29;;;;;;;12.60;4.90;;;;;;;19.75;71.31;101496.25;5066498;28;20044;-76
2022/08/12 04:29:56;;;;;;;13.13;5.55;;;;;;;19.74;71.09;101498.28;5064551;28;20045;-79
2022/08/12 04:32:43;;;;;;;14.50;5.97;;;;;;;19.71;70.89;101487.16;5060882;28;20397;-78
2022/08/12 04:35:11;;;;;;;11.52;5.35;;;;;;;19.73;70.84;101499.50;5062390;28;20095;-79
2022/08/12 04:37:37;;;;;;;11.18;5.50;;;;;;;19.76;71.10;101495.03;5057933;28;20060;-76
2022/08/12 04:40:26;;;;;;;11.93;5.25;;;;;;;19.75;70.73;101494.22;5058485;28;20048;-78
2022/08/12 04:42:54;;;;;;;11.35;5.53;;;;;;;19.74;71.58;101505.91;5065778;28;20110;-78
2022/08/12 04:45:21;;;;;;;12.77;5.82;;;;;;;19.73;71.42;101505.13;5061543;28;20063;-78
2022/08/12 04:47:48;;;;;;;11.25;5.57;;;;;;;19.67;71.90;101498.47;5060741;28;20657;-78
2022/08/12 04:50:16;;;;;;;11.77;5.88;;;;;;;19.70;72.38;101499.59;5067766;28;20043;-78
2022/08/12 04:53:06;;;;;;;14.13;5.88;;;;;;;19.71;73.47;101501.19;5067358;28;20045;-78
2022/08/12 04:55:37;;;;;;;16.40;5.53;;;;;;;19.72;72.42;101494.34;5071020;28;20052;-78
2022/08/12 04:58:07;;;;;;;11.52;5.35;;;;;;;19.71;73.24;101496.34;5065333;28;20178;-78
2022/08/12 05:00:36;;;;;;;15.90;6.32;;;;;;;19.70;73.87;101494.78;5067010;28;20041;-78
2022/08/12 05:03:04;;;;;;;12.77;5.82;;;;;;;19.74;73.00;101498.28;5058332;28;20481;-78
2022/08/12 05:05:33;;;;;;;19.52;7.43;;;;;;;19.77;73.16;101485.38;5059359;28;20131;-78
2022/08/12 05:08:03;;;;;;;14.70;7.00;;;;;;;19.81;72.99;101492.47;5070134;28;20056;-78
2022/08/12 05:10:29;;;;;;;14.25;6.78;;;;;;;19.88;72.52;101494.31;5063771;28;20041;-77
2022/08/12 05:13:06;;;;;;;15.82;7.18;;;;;;;19.89;72.05;101493.06;5066923;28;20503;-77
2022/08/12 05:15:37;;;;;;;14.43;6.93;;;;;;;19.98;71.60;101496.03;5065045;28;20047;-77
2022/08/12 05:18:23;;;;;;;15.90;7.20;;;;;;;20.06;71.96;101498.22;5068836;28;20493;-76
2022/08/12 05:20:54;;;;;;;21.75;7.55;;;;;;;20.13;70.98;101489.63;5058948;28;20067;-76
2022/08/12 05:23:21;;;;;;;15.32;7.05;;;;;;;20.19;71.83;101490.63;5067221;28;20056;-77
2022/08/12 05:25:50;;;;;;;15.18;6.82;;;;;;;20.27;70.73;101492.03;5063013;28;20040;-77
2022/08/12 05:28:17;;;;;;;20.38;7.38;;;;;;;20.35;71.04;101493.38;5062299;28;20523;-79
2022/08/12 05:30:44;;;;;;;13.57;6.70;;;;;;;20.43;70.76;101485.53;5069436;28;20083;-78
2022/08/12 05:33:12;;;;;;;16.40;7.22;;;;;;;20.51;70.39;101491.75;5059707;28;20053;-75
2022/08/12 05:35:41;;;;;;;19.73;7.10;;;;;;;20.57;70.08;101499.19;5066664;28;20062;-76
2022/08/12 05:40:56;;;;;;;15.90;7.38;;;;;;;20.74;69.55;101505.50;5067817;28;20131;-75
2022/08/12 05:43:23;;;;;;;14.82;7.95;;;;;;;20.80;68.61;101512.94;5072362;28;20057;-76
2022/08/12 05:45:50;;;;;;;13.98;6.93;;;;;;;20.90;68.46;101505.41;5070869;28;20072;-76
2022/08/12 05:48:17;;;;;;;17.83;8.07;;;;;;;20.99;68.22;101517.59;5060629;28;20040;-76
2022/08/12 05:50:45;;;;;;;19.40;7.97;;;;;;;21.07;67.52;101506.91;5065234;28;20041;-76
2022/08/12 05:53:12;;;;;;;21.05;9.18;;;;;;;21.13;67.13;101511.50;5062395;28;20048;-76
2022/08/12 05:55:39;;;;;;;15.50;7.57;;;;;;;21.25;67.41;101509.91;5070391;28;20124;-76
2022/08/12 05:58:06;;;;;;;18.52;7.68;;;;;;;21.32;67.04;101509.69;5067484;28;20051;-77
2022/08/12 06:00:34;;;;;;;19.45;8.48;;;;;;;21.39;66.73;101515.13;5068396;28;20041;-75
2022/08/12 06:03:03;;;;;;;19.42;8.30;;;;;;;21.48;66.80;101512.38;5073437;28;20110;-75
2022/08/12 06:05:33;;;;;;;21.42;8.77;;;;;;;21.56;66.61;101510.91;5065106;28;20110;-77
2022/08/12 06:08:19;;;;;;;19.35;9.05;;;;;;;21.64;66.05;101501.78;5063041;28;20047;-77
2022/08/12 06:10:48;;;;;;;16.98;8.25;;;;;;;21.72;65.73;101505.94;5071322;28;20135;-77
2022/08/12 06:13:16;;;;;;;17.17;8.45;;;;;;;21.80;65.99;101496.00;5065117;28;20045;-76
2022/08/12 06:16:03;;;;;;;17.48;9.07;;;;;;;21.88;65.30;101500.16;5065740;28;20044;-77
2022/08/12 06:18:30;;;;;;;17.17;8.48;;;;;;;21.98;64.43;101504.63;5056804;28;20068;-76
2022/08/12 06:21:00;;;;;;;16.67;8.30;;;;;;;22.06;63.83;101510.78;5062300;28;20052;-76
2022/08/12 06:23:28;;;;;;;19.70;9.15;;;;;;;22.17;63.68;101514.78;5067145;28;20044;-78
2022/08/12 06:25:55;;;;;;;19.42;8.70;;;;;;;22.26;62.92;101506.41;5068216;28;20127;-77
2022/08/12 06:28:22;;;;;;;16.90;8.15;;;;;;;22.38;62.42;101507.59;5064732;28;20055;-74
2022/08/12 06:30:52;;;;;;;23.13;8.38;;;;;;;22.48;62.10;101506.41;5067778;28;20066;-75
2022/08/12 06:33:42;;;;;;;18.02;8.45;;;;;;;22.58;61.56;101513.72;5063820;28;20374;-77
2022/08/12 06:36:29;;;;;;;18.67;7.95;;;;;;;22.67;61.06;101508.91;5065443;28;20048;-79
2022/08/12 06:38:59;;;;;;;21.77;7.70;;;;;;;22.79;60.57;101512.91;5060821;28;20184;-80
2022/08/12 06:44:31;;;;;;;16.33;7.63;;;;;;;23.03;60.54;101515.97;5071096;28;20060;-82
2022/08/12 06:46:58;;;;;;;18.00;8.00;;;;;;;23.14;60.18;101508.66;5069590;28;20044;-82
2022/08/12 06:49:27;;;;;;;20.70;8.13;;;;;;;23.26;59.13;101509.84;5067409;28;20124;-80
2022/08/12 06:51:54;;;;;;;22.52;8.13;;;;;;;23.33;58.71;101515.97;5065425;28;20048;-76
2022/08/12 06:54:24;;;;;;;18.02;7.20;;;;;;;23.48;58.15;101510.53;5059466;28;20044;-77
2022/08/12 06:56:57;;;;;;;14.80;7.25;;;;;;;23.59;57.17;101510.88;5066302;28;20044;-77
2022/08/12 06:59:44;;;;;;;18.73;8.48;;;;;;;23.71;57.33;101502.25;5061912;28;20044;-78
2022/08/12 07:02:11;;;;;;;16.60;7.55;;;;;;;23.82;57.02;101496.16;5062794;28;20048;-80
2022/08/12 07:04:37;;;;;;;17.38;7.63;;;;;;;23.90;56.41;101498.19;5064622;28;20054;-78
2022/08/12 07:07:08;;;;;;;17.17;6.78;;;;;;;24.05;56.06;101504.03;5061736;28;20713;-78
2022/08/12 07:09:41;;;;;;;15.23;7.50;;;;;;;24.19;55.50;101509.03;5066377;28;20044;-80
2022/08/12 07:12:27;;;;;;;16.20;7.47;;;;;;;24.36;55.15;101515.94;5066423;28;20059;-80
2022/08/12 07:14:56;;;;;;;19.23;7.35;;;;;;;24.50;54.54;101507.59;5064763;28;20052;-82
2022/08/12 07:17:22;;;;;;;17.15;7.55;;;;;;;24.65;54.06;101507.75;5066697;28;20045;-77
2022/08/12 07:19:50;;;;;;;15.10;6.32;;;;;;;24.79;53.18;101513.53;5065576;28;20064;-71
2022/08/12 07:22:22;;;;;;;18.30;7.40;;;;;;;24.89;52.48;101515.09;5060027;28;20058;-77
2022/08/12 07:25:29;;;;;;;22.33;9.13;;;;;;;25.02;52.20;101512.84;5059425;28;20783;-75
2022/08/12 07:27:39;;;;;;;22.33;7.15;;;;;;;25.15;51.33;101519.06;5058928;28;20052;-75
2022/08/12 07:30:07;;;;;;;18.88;7.03;;;;;;;25.29;50.70;101519.63;5063317;28;20044;-75
2022/08/12 07:32:34;;;;;;;13.60;6.72;;;;;;;25.41;49.77;101524.34;5058212;28;20519;-75
2022/08/12 07:35:02;;;;;;;16.85;6.78;;;;;;;25.54;49.33;101519.22;5062873;28;20519;-79
2022/08/12 07:37:29;;;;;;;13.02;5.95;;;;;;;25.67;48.84;101528.25;5064047;28;20056;-78
2022/08/12 07:39:57;;;;;;;13.05;6.60;;;;;;;25.74;47.99;101525.84;5065531;28;20508;-76
2022/08/12 07:42:27;;;;;;;13.25;5.97;;;;;;;25.82;47.73;101524.25;5062655;28;20082;-76
2022/08/12 07:44:54;;;;;;;11.38;5.75;;;;;;;25.93;47.04;101526.50;5061978;28;20546;-76
2022/08/12 07:47:26;;;;;;;17.48;6.55;;;;;;;26.01;45.79;101527.72;5056958;28;20056;-76
2022/08/12 07:49:53;;;;;;;16.40;5.90;;;;;;;26.11;46.23;101540.56;5061616;28;20051;-75
2022/08/12 07:52:36;;;;;;;14.45;5.38;;;;;;;26.23;45.90;101523.31;5057602;28;20049;-76
2022/08/12 07:55:04;;;;;;;12.80;5.35;;;;;;;26.34;45.10;101531.22;5063703;28;20086;-75
2022/08/12 07:57:34;;;;;;;13.32;5.50;;;;;;;26.43;43.30;101531.94;5061227;28;20051;-76
2022/08/12 08:00:05;;;;;;;14.20;5.05;;;;;;;26.52;42.91;101519.72;5057891;28;20115;-77
2022/08/12 08:02:35;;;;;;;12.20;5.50;;;;;;;26.62;42.61;101522.00;5063199;28;20076;-76
2022/08/12 08:05:03;;;;;;;11.35;5.50;;;;;;;26.70;42.80;101528.84;5064738;28;20642;-77
2022/08/12 08:07:30;;;;;;;14.00;5.47;;;;;;;26.81;42.67;101525.44;5055879;28;20055;-76
2022/08/12 08:10:01;;;;;;;13.38;5.38;;;;;;;26.87;41.95;101526.31;5063564;28;20430;-76
2022/08/12 08:15:15;;;;;;;14.38;5.47;;;;;;;27.12;42.36;101522.84;5061312;28;20143;-73
2022/08/12 08:18:02;;;;;;;10.80;5.07;;;;;;;27.25;42.23;101523.34;5062547;28;20045;-76
2022/08/12 08:20:32;;;;;;;14.60;5.10;;;;;;;27.39;41.94;101516.81;5059145;28;20040;-75
2022/08/12 08:23:04;;;;;;;12.77;4.65;;;;;;;27.48;41.71;101518.75;5058528;28;20098;-74
2022/08/12 08:25:31;;;;;;;13.45;5.00;;;;;;;27.63;41.42;101523.13;5055031;28;20063;-76
2022/08/12 08:28:16;;;;;;;12.93;5.50;;;;;;;27.76;41.25;101529.25;5059415;28;20087;-74
2022/08/12 08:30:44;;;;;;;13.27;4.70;;;;;;;27.88;41.30;101524.50;5065105;28;20642;-75
2022/08/12 08:33:13;;;;;;;11.57;4.82;;;;;;;27.99;41.10;101527.50;5063457;28;20048;-75
2022/08/12 08:35:50;;;;;;;11.70;5.05;;;;;;;28.09;40.57;101515.47;5061347;28;20131;-75
2022/08/12 08:38:20;;;;;;;10.32;4.68;;;;;;;28.25;40.35;101519.78;5059890;28;20060;-78
2022/08/12 08:44:04;;;;;;;15.48;4.43;;;;;;;28.47;39.95;101520.84;5060946;28;20413;-79
2022/08/12 08:46:36;;;;;;;16.30;5.32;;;;;;;28.54;39.19;101511.84;5064246;28;20135;-76
2022/08/12 08:49:04;;;;;;;8.73;4.55;;;;;;;28.66;39.59;101507.84;5059169;28;20061;-75
2022/08/12 08:51:30;;;;;;;11.35;4.80;;;;;;;28.77;39.47;101513.63;5057564;28;20072;-76
2022/08/12 08:53:57;;;;;;;17.52;4.60;;;;;;;28.90;39.13;101521.75;5060855;28;20054;-78
2022/08/12 08:56:23;;;;;;;15.07;5.35;;;;;;;29.04;38.83;101521.66;5065234;28;20048;-77
2022/08/12 08:58:50;;;;;;;12.27;4.57;;;;;;;29.14;37.78;101523.03;5054682;28;20143;-77
2022/08/12 09:01:20;;;;;;;12.25;4.75;;;;;;;29.18;37.20;101517.88;5058995;28;20080;-77
2022/08/12 09:03:48;;;;;;;12.70;4.18;;;;;;;29.27;37.17;101514.84;5066741;28;20041;-78
2022/08/12 09:06:34;;;;;;;10.93;4.65;;;;;;;29.32;36.59;101516.94;5058574;28;20065;-73
2022/08/12 09:09:04;;;;;;;11.07;4.22;;;;;;;29.48;35.98;101524.81;5056771;28;20045;-75
2022/08/12 09:14:42;;;;;;;10.32;3.85;;;;;;;29.70;34.89;101513.53;5059807;28;20052;-74
2022/08/12 09:17:19;;;;;;;11.57;4.30;;;;;;;29.85;34.87;101519.06;5059662;28;20044;-75
2022/08/12 09:19:47;;;;;;;7.63;3.85;;;;;;;29.93;34.04;101520.13;5064958;28;20969;-72
2022/08/12 09:22:22;;;;;;;8.48;3.28;;;;;;;29.98;33.05;101512.88;5061816;28;20082;-74
2022/08/12 09:24:55;;;;;;;8.18;3.17;;;;;;;30.06;32.76;101511.13;5062491;28;20516;-72
2022/08/12 09:27:25;;;;;;;8.57;3.50;;;;;;;30.07;31.28;101512.66;5064232;28;20056;-73
2022/08/12 09:30:16;;;;;;;7.97;3.35;;;;;;;30.14;32.21;101510.09;5061002;28;20048;-73
2022/08/12 09:33:04;;;;;;;8.80;3.80;;;;;;;30.38;32.06;101512.53;5059593;28;20049;-75
2022/08/12 09:35:44;;;;;;;6.90;3.30;;;;;;;30.57;32.37;101510.75;5052949;28;20121;-72
2022/08/12 09:38:16;;;;;;;12.02;4.10;;;;;;;30.71;31.85;101504.75;5061306;28;20064;-73
2022/08/12 09:40:58;;;;;;;13.02;3.38;;;;;;;30.83;28.50;101505.59;5066689;28;20048;-75
2022/08/12 09:46:31;;;;;;;7.10;2.83;;;;;;;30.98;29.94;101501.16;5065164;28;20458;-72
2022/08/12 09:49:00;;;;;;;8.25;3.08;;;;;;;31.10;29.31;101494.16;5062642;28;20060;-76
2022/08/12 09:51:38;;;;;;;7.30;2.88;;;;;;;31.22;29.42;101487.09;5063257;28;20068;-74
2022/08/12 09:54:14;;;;;;;8.77;2.92;;;;;;;31.34;29.29;101499.31;5044841;28;20099;-77
2022/08/12 09:57:06;;;;;;;7.78;3.05;;;;;;;31.57;28.82;101490.19;5049133;28;20161;-76
2022/08/12 09:59:53;;;;;;;7.05;2.80;;;;;;;31.73;28.11;101492.22;5040036;28;20467;-73
2022/08/12 10:03:00;;;;;;;9.02;3.90;;;;;;;31.84;27.87;101483.59;5043810;28;20056;-77
2022/08/12 10:05:35;;;;;;;13.68;3.38;;;;;;;31.96;28.10;101481.47;5039161;28;20052;-74
2022/08/12 10:08:26;;;;;;;5.78;2.90;;;;;;;32.08;27.26;101465.78;5044846;28;20061;-78
2022/08/12 10:13:47;;;;;;;8.73;3.05;;;;;;;32.24;27.37;101473.50;5041433;28;20650;-73
2022/08/12 10:16:17;;;;;;;7.85;3.00;;;;;;;32.29;27.22;101474.78;5046170;28;20911;-74
2022/08/12 10:18:48;;;;;;;8.02;3.20;;;;;;;32.36;26.94;101475.00;5042136;28;20165;-74
2022/08/12 10:21:23;;;;;;;6.22;3.03;;;;;;;32.44;26.97;101475.19;5043910;28;20505;-74
2022/08/12 10:24:13;;;;;;;4.63;2.63;;;;;;;32.51;26.79;101471.75;5042122;28;20646;-75
2022/08/12 10:29:46;;;;;;;7.43;3.00;;;;;;;32.58;26.91;101460.53;5040506;28;20055;-74
2022/08/12 10:32:32;;;;;;;6.05;2.78;;;;;;;32.65;26.44;101444.81;5047108;28;20059;-73
2022/08/12 10:35:14;;;;;;;6.97;2.88;;;;;;;32.71;26.17;101443.47;5039419;28;20048;-72
2022/08/12 10:37:41;;;;;;;6.88;2.83;;;;;;;32.69;26.44;101446.09;5047720;28;20056;-72
2022/08/12 10:40:30;;;;;;;12.18;3.08;;;;;;;32.70;26.01;101444.78;5042659;28;20055;-75
2022/08/12 10:45:47;;;;;;;6.45;3.10;;;;;;;32.84;26.32;101437.94;5044331;28;20064;-72
2022/08/12 10:48:16;;;;;;;8.75;2.90;;;;;;;32.90;26.11;101432.91;5045776;28;20076;-74
2022/08/12 10:51:00;;;;;;;9.13;3.30;;;;;;;33.03;25.61;101424.44;5040060;28;20045;-72
2022/08/12 10:53:47;;;;;;;8.07;3.20;;;;;;;33.05;25.65;101421.81;5034542;28;20060;-72
2022/08/12 10:56:17;;;;;;;7.05;3.10;;;;;;;33.16;25.97;101415.94;5044436;28;20044;-72
2022/08/12 10:58:44;;;;;;;11.63;3.28;;;;;;;33.17;25.42;101416.75;5039232;28;20581;-73
2022/08/12 11:01:16;;;;;;;8.90;2.70;;;;;;;33.24;25.37;101405.41;5039437;28;20048;-73
2022/08/12 11:04:04;;;;;;;10.00;3.08;;;;;;;33.22;25.29;101418.75;5040574;28;20060;-72
2022/08/12 11:06:52;;;;;;;5.95;2.67;;;;;;;33.22;24.89;101413.81;5049661;28;20049;-72
2022/08/12 11:09:40;;;;;;;4.75;2.78;;;;;;;33.37;25.16;101405.56;5042987;28;20048;-72
2022/08/12 11:12:28;;;;;;;7.07;3.20;;;;;;;33.30;24.66;101391.78;5045151;28;20056;-72
2022/08/12 11:15:15;;;;;;;8.88;2.70;;;;;;;33.31;24.99;101395.44;5040231;28;20055;-75
2022/08/12 11:17:49;;;;;;;9.10;3.10;;;;;;;33.50;25.07;101399.91;5042114;28;20918;-72
2022/08/12 11:20:23;;;;;;;4.43;2.60;;;;;;;33.63;24.63;101397.16;5043633;28;20062;-71
2022/08/12 11:23:00;;;;;;;10.20;3.17;;;;;;;33.68;24.05;101392.66;5044950;28;20052;-74
2022/08/12 11:25:47;;;;;;;9.15;2.72;;;;;;;33.78;24.19;101380.22;5045762;28;20045;-72
2022/08/12 11:28:23;;;;;;;9.40;2.97;;;;;;;33.86;23.94;101381.19;5043706;28;20055;-72
2022/08/12 11:31:01;;;;;;;7.75;2.85;;;;;;;33.94;23.76;101385.00;5044970;28;20059;-75
2022/08/12 11:33:28;;;;;;;5.93;2.50;;;;;;;33.92;23.14;101384.75;5047233;28;20163;-71
2022/08/12 11:36:15;;;;;;;4.90;2.50;;;;;;;33.93;22.80;101380.56;5038149;28;20072;-72
2022/08/12 11:38:42;;;;;;;4.13;2.60;;;;;;;34.02;22.72;101376.53;5045663;28;20629;-71
2022/08/12 11:41:19;;;;;;;6.57;2.72;;;;;;;34.02;22.54;101380.16;5038912;28;20064;-72
2022/08/12 11:43:58;;;;;;;5.28;2.80;;;;;;;34.17;23.15;101380.47;5045799;28;20159;-72
2022/08/12 11:46:24;;;;;;;7.25;2.95;;;;;;;34.22;22.90;101367.34;5046441;28;20059;-72
2022/08/12 11:48:51;;;;;;;7.25;2.90;;;;;;;34.43;23.21;101361.78;5043634;28;20056;-71
2022/08/12 11:51:19;;;;;;;8.40;2.83;;;;;;;34.51;22.92;101366.34;5042426;28;20044;-72
2022/08/12 11:53:46;;;;;;;7.85;2.90;;;;;;;34.56;23.09;101358.94;5040629;28;20071;-71
2022/08/12 11:56:27;;;;;;;8.02;3.08;;;;;;;34.72;22.93;101355.75;5042507;28;20063;-72
2022/08/12 11:59:06;;;;;;;7.38;3.15;;;;;;;34.81;22.85;101351.66;5040259;28;20060;-71
2022/08/12 12:01:52;;;;;;;3.25;2.20;;;;;;;34.85;23.13;101338.56;5032412;28;20901;-72
2022/08/12 12:04:29;;;;;;;6.72;2.60;;;;;;;34.90;22.60;101359.91;5053417;28;20838;-73
2022/08/12 12:06:56;;;;;;;7.70;2.70;;;;;;;34.90;22.87;101340.56;5042745;28;20080;-72
2022/08/12 12:09:34;;;;;;;8.82;3.28;;;;;;;34.88;22.58;101340.31;5045327;28;20052;-73
2022/08/12 12:12:22;;;;;;;6.63;3.08;;;;;;;34.97;22.68;101348.53;5037003;28;20145;-73
2022/08/12 12:14:51;;;;;;;6.65;2.70;;;;;;;35.05;22.34;101334.22;5043701;28;20049;-73
2022/08/12 12:17:24;;;;;;;13.52;3.42;;;;;;;34.85;22.55;101338.56;5047618;28;20056;-73
2022/08/12 12:19:52;;;;;;;7.78;2.70;;;;;;;35.08;22.72;101338.88;5045801;28;20044;-73
2022/08/12 12:22:21;;;;;;;7.20;2.80;;;;;;;35.33;22.61;101331.59;5041023;28;20076;-73
2022/08/12 12:24:57;;;;;;;8.90;3.50;;;;;;;35.62;21.93;101339.03;5040120;28;20049;-71
2022/08/12 12:27:47;;;;;;;8.00;2.90;;;;;;;35.55;21.54;101323.25;5038517;28;20155;-74
2022/08/12 12:30:33;;;;;;;5.82;2.30;;;;;;;35.74;21.34;101326.72;5039828;28;20048;-74
2022/08/12 12:32:59;;;;;;;6.22;2.05;;;;;;;35.83;20.55;101334.91;5044183;28;20051;-73
2022/08/12 12:35:26;;;;;;;3.25;1.67;;;;;;;35.78;20.31;101332.94;5040445;28;20044;-73
2022/08/12 12:38:13;;;;;;;6.72;2.38;;;;;;;35.82;20.17;101321.84;5045665;28;20929;-73
2022/08/12 12:40:58;;;;;;;5.50;2.35;;;;;;;35.84;19.35;101318.41;5046107;28;20055;-72
2022/08/12 12:43:40;;;;;;;4.82;2.22;;;;;;;36.06;20.23;101317.84;5043596;28;20576;-73
2022/08/12 12:46:27;;;;;;;5.40;1.80;;;;;;;36.14;19.03;101324.47;5044989;28;20796;-74
2022/08/12 12:48:54;;;;;;;4.68;2.10;;;;;;;36.07;18.47;101319.44;5043376;28;20056;-73
2022/08/12 12:51:21;;;;;;;4.38;2.17;;;;;;;36.20;18.52;101319.34;5044634;28;20045;-73
2022/08/12 12:54:09;;;;;;;6.88;2.10;;;;;;;36.45;18.87;101311.91;5043626;28;20744;-72
2022/08/12 12:56:48;;;;;;;3.25;2.05;;;;;;;36.43;18.09;101311.69;5042906;28;20044;-73
2022/08/12 12:59:17;;;;;;;3.25;2.03;;;;;;;36.32;18.70;101301.25;5040367;28;20718;-73
2022/08/12 13:02:04;;;;;;;3.45;1.85;;;;;;;36.57;18.99;101301.59;5040119;28;20442;-72
2022/08/12 13:04:39;;;;;;;4.32;2.00;;;;;;;36.77;18.50;101312.34;5044639;28;20647;-73
2022/08/12 13:07:18;;;;;;;5.55;2.55;;;;;;;36.99;18.05;101300.19;5041966;28;20517;-72
2022/08/12 13:10:05;;;;;;;9.05;2.20;;;;;;;37.07;17.91;101298.13;5043468;28;20489;-73
2022/08/12 13:12:35;;;;;;;5.25;1.70;;;;;;;36.99;17.93;101285.78;5043044;28;20048;-72
2022/08/12 13:15:06;;;;;;;4.53;1.98;;;;;;;36.96;18.42;101286.91;5044767;28;20055;-72
2022/08/12 13:17:33;;;;;;;6.95;2.10;;;;;;;36.95;18.13;101281.72;5040413;28;20049;-72
2022/08/12 13:20:26;;;;;;;5.30;2.22;;;;;;;37.06;18.53;101279.28;5046216;28;20053;-71
2022/08/12 13:23:09;;;;;;;4.25;2.00;;;;;;;37.17;18.65;101276.06;5044768;28;20057;-73
2022/08/12 13:25:56;;;;;;;8.07;2.08;;;;;;;37.09;18.30;101280.25;5038307;28;20057;-73
2022/08/12 13:28:29;;;;;;;3.45;1.55;;;;;;;37.12;17.59;101273.31;5041021;28;20056;-72
2022/08/12 13:30:58;;;;;;;6.10;1.70;;;;;;;37.22;17.27;101277.25;5048734;28;20051;-72
2022/08/12 13:33:29;;;;;;;4.45;1.92;;;;;;;37.22;17.27;101286.66;5044565;28;20052;-72
2022/08/12 13:36:15;;;;;;;5.18;2.30;;;;;;;36.99;17.07;101280.00;5040983;28;20965;-67
2022/08/12 13:38:49;;;;;;;11.65;2.85;;;;;;;36.78;16.66;101282.19;5043760;28;20933;-72
2022/08/12 13:41:35;;;;;;;5.50;1.80;;;;;;;36.69;17.30;101287.66;5042117;28;20163;-73
2022/08/12 13:44:08;;;;;;;3.85;2.00;;;;;;;36.78;17.18;101290.06;5046421;28;20044;-72